createdAt,value
2023-02-14T00:01:46.145Z,23.50
2023-02-14T00:04:13.849Z,24.90
2023-02-14T00:06:41.206Z,22.20
2023-02-14T00:09:12.664Z,20.90
2023-02-14T00:11:39.992Z,21.10
2023-02-14T00:14:26.660Z,21.80
2023-02-14T00:16:53.520Z,20.60
2023-02-14T00:19:21.260Z,22.40
2023-02-14T00:21:48.531Z,26.00
2023-02-14T00:24:17.924Z,27.60
2023-02-14T00:26:44.984Z,36.60
2023-02-14T00:29:14.462Z,35.70
2023-02-14T00:31:41.800Z,36.70
2023-02-14T00:34:09.597Z,29.80
2023-02-14T00:36:36.806Z,35.00
2023-02-14T00:39:09.075Z,29.10
2023-02-14T00:41:36.423Z,29.30
2023-02-14T00:44:03.691Z,29.90
2023-02-14T00:46:30.999Z,29.40
2023-02-14T00:48:58.117Z,30.80
2023-02-14T00:51:25.361Z,30.30
2023-02-14T00:53:52.619Z,29.10
2023-02-14T00:56:20.429Z,30.40
2023-02-14T00:58:47.462Z,29.90
2023-02-14T01:01:18.392Z,31.10
2023-02-14T01:03:45.929Z,29.60
2023-02-14T01:06:12.610Z,30.00
2023-02-14T01:08:39.728Z,31.00
2023-02-14T01:11:16.418Z,32.60
2023-02-14T01:13:44.155Z,34.50
2023-02-14T01:16:14.235Z,32.30
2023-02-14T01:18:42.226Z,32.50
2023-02-14T01:21:15.093Z,35.60
2023-02-14T01:23:43.270Z,35.90
2023-02-14T01:26:10.623Z,38.50
2023-02-14T01:28:37.524Z,34.70
2023-02-14T01:31:13.178Z,37.60
2023-02-14T01:33:41.196Z,34.30
2023-02-14T01:36:16.297Z,39.00
2023-02-14T01:38:43.173Z,46.70
2023-02-14T01:41:10.208Z,33.50
2023-02-14T01:43:55.940Z,34.60
2023-02-14T01:46:23.860Z,34.30
2023-02-14T01:48:51.063Z,31.40
2023-02-14T01:51:19.940Z,33.60
2023-02-14T01:53:47.463Z,35.80
2023-02-14T01:56:24.141Z,35.70
2023-02-14T01:58:53.806Z,35.90
2023-02-14T02:01:21.264Z,37.90
2023-02-14T02:03:53.001Z,38.30
2023-02-14T02:06:29.023Z,39.10
2023-02-14T02:09:21.570Z,42.20
2023-02-14T02:11:49.086Z,37.40
2023-02-14T02:14:18.819Z,38.80
2023-02-14T02:17:23.607Z,43.20
2023-02-14T02:20:12.468Z,40.80
2023-02-14T02:23:43.668Z,36.00
2023-02-14T02:26:55.304Z,37.80
2023-02-14T02:30:08.391Z,35.80
2023-02-14T02:32:50.145Z,39.30
2023-02-14T02:36:06.883Z,40.00
2023-02-14T02:38:55.242Z,33.70
2023-02-14T02:42:03.538Z,34.10
2023-02-14T02:44:59.900Z,34.50
2023-02-14T02:47:52.643Z,37.80
2023-02-14T02:50:50.031Z,34.90
2023-02-14T02:53:36.613Z,33.20
2023-02-14T02:56:34.979Z,34.70
2023-02-14T02:59:06.679Z,34.90
2023-02-14T03:01:37.962Z,33.30
2023-02-14T03:04:26.647Z,35.80
2023-02-14T03:06:54.801Z,35.60
2023-02-14T03:09:24.454Z,34.80
2023-02-14T03:12:18.646Z,34.70
2023-02-14T03:14:56.327Z,34.30
2023-02-14T03:17:35.114Z,33.50
2023-02-14T03:20:17.556Z,33.40
2023-02-14T03:23:13.004Z,35.00
2023-02-14T03:25:55.291Z,33.10
2023-02-14T03:28:42.726Z,30.10
2023-02-14T03:31:35.225Z,32.40
2023-02-14T03:34:12.880Z,31.70
2023-02-14T03:36:56.772Z,37.50
2023-02-14T03:39:35.586Z,36.40
2023-02-14T03:42:09.922Z,36.30
2023-02-14T03:44:40.008Z,38.50
2023-02-14T03:47:13.615Z,36.70
2023-02-14T03:49:49.091Z,36.50
2023-02-14T03:52:18.172Z,35.60
2023-02-14T03:54:48.894Z,35.20
2023-02-14T03:57:21.887Z,35.00
2023-02-14T03:59:49.164Z,36.00
2023-02-14T04:02:38.557Z,36.70
2023-02-14T04:05:13.703Z,31.70
2023-02-14T04:07:53.437Z,31.30
2023-02-14T04:10:21.668Z,31.20
2023-02-14T04:12:48.824Z,33.00
2023-02-14T04:15:18.854Z,31.90
2023-02-14T04:18:04.939Z,31.30
2023-02-14T04:20:32.152Z,32.40
2023-02-14T04:22:59.098Z,30.30
2023-02-14T04:25:26.448Z,31.20
2023-02-14T04:27:53.755Z,32.10
2023-02-14T04:30:22.748Z,32.00
2023-02-14T04:32:49.716Z,29.90
2023-02-14T04:35:17.100Z,29.10
2023-02-14T04:37:43.824Z,60.30
2023-02-14T04:40:11.352Z,96.30
2023-02-14T04:42:38.168Z,78.50
2023-02-14T04:45:06.136Z,128.20
2023-02-14T04:47:33.191Z,76.60
2023-02-14T04:50:00.075Z,145.30
2023-02-14T04:52:27.091Z,95.60
2023-02-14T04:54:54.217Z,97.50
2023-02-14T04:57:21.300Z,70.50
2023-02-14T04:59:48.274Z,63.10
2023-02-14T05:02:15.530Z,73.30
2023-02-14T05:04:42.428Z,89.20
2023-02-14T05:07:09.526Z,57.50
2023-02-14T05:09:41.113Z,75.50
2023-02-14T05:12:08.120Z,63.00
2023-02-14T05:14:35.681Z,57.60
2023-02-14T05:17:05.520Z,71.10
2023-02-14T05:19:32.542Z,38.40
2023-02-14T05:21:59.467Z,45.30
2023-02-14T05:24:26.286Z,39.50
2023-02-14T05:26:53.363Z,31.20
2023-02-14T05:29:20.952Z,24.00
2023-02-14T05:31:47.965Z,27.70
2023-02-14T05:34:15.253Z,31.30
2023-02-14T05:36:42.431Z,33.60
2023-02-14T05:39:09.754Z,44.30
2023-02-14T05:44:03.670Z,22.10
2023-02-14T05:46:30.772Z,26.50
2023-02-14T05:48:57.610Z,20.70
2023-02-14T05:51:24.895Z,32.60
2023-02-14T05:53:51.564Z,35.00
2023-02-14T05:56:18.825Z,31.80
2023-02-14T05:58:45.871Z,42.50
2023-02-14T06:01:13.232Z,54.80
2023-02-14T06:03:39.760Z,40.60
2023-02-14T06:06:06.942Z,44.10
2023-02-14T06:08:33.775Z,42.30
2023-02-14T06:11:00.922Z,30.30
2023-02-14T06:13:28.049Z,28.20
2023-02-14T06:15:55.257Z,27.10
2023-02-14T06:18:22.237Z,26.30
2023-02-14T06:20:49.320Z,29.60
2023-02-14T06:23:16.191Z,21.60
2023-02-14T06:25:43.354Z,22.00
2023-02-14T06:28:10.586Z,22.30
2023-02-14T06:30:37.505Z,30.00
2023-02-14T06:33:04.742Z,19.30
2023-02-14T06:35:32.169Z,17.20
2023-02-14T06:37:59.366Z,19.00
2023-02-14T06:40:26.387Z,16.00
2023-02-14T06:42:53.183Z,17.80
2023-02-14T06:45:20.334Z,17.90
2023-02-14T06:47:49.259Z,16.80
2023-02-14T06:50:16.786Z,19.20
2023-02-14T06:52:44.455Z,17.70
2023-02-14T06:55:13.800Z,18.50
2023-02-14T06:57:40.881Z,15.60
2023-02-14T07:00:11.846Z,15.10
2023-02-14T07:02:38.916Z,15.60
2023-02-14T07:05:19.236Z,15.00
2023-02-14T07:07:46.206Z,16.80
2023-02-14T07:10:16.169Z,19.20
2023-02-14T07:12:43.128Z,17.70
2023-02-14T07:15:17.843Z,19.80
2023-02-14T07:17:44.631Z,19.30
2023-02-14T07:20:13.015Z,20.30
2023-02-14T07:22:39.965Z,23.70
2023-02-14T07:25:07.814Z,21.60
2023-02-14T07:27:34.864Z,19.20
2023-02-14T07:30:02.185Z,19.40
2023-02-14T07:32:29.149Z,20.80
2023-02-14T07:34:56.463Z,20.40
2023-02-14T07:37:23.562Z,18.60
2023-02-14T07:39:50.636Z,18.80
2023-02-14T07:42:18.018Z,19.20
2023-02-14T07:44:46.609Z,18.50
2023-02-14T07:47:18.300Z,19.10
2023-02-14T07:49:45.263Z,20.80
2023-02-14T07:52:12.294Z,19.90
2023-02-14T07:54:39.644Z,19.30
2023-02-14T07:57:06.772Z,19.90
2023-02-14T07:59:33.631Z,19.50
2023-02-14T08:02:00.676Z,19.10
2023-02-14T08:04:27.582Z,19.70
2023-02-14T08:06:54.929Z,20.60
2023-02-14T08:09:24.965Z,20.80
2023-02-14T08:12:12.057Z,19.40
2023-02-14T08:14:39.610Z,21.10
2023-02-14T08:17:07.527Z,20.10
2023-02-14T08:19:34.666Z,23.30
2023-02-14T08:22:01.240Z,19.10
2023-02-14T08:24:28.298Z,20.20
2023-02-14T08:26:55.627Z,20.90
2023-02-14T08:29:22.584Z,19.70
2023-02-14T08:31:49.583Z,20.70
2023-02-14T08:34:17.493Z,22.60
2023-02-14T08:36:44.264Z,24.40
2023-02-14T08:39:10.897Z,24.50
2023-02-14T08:41:37.810Z,22.70
2023-02-14T08:44:04.786Z,19.60
2023-02-14T08:46:31.791Z,19.40
2023-02-14T08:48:58.633Z,17.80
2023-02-14T08:51:25.964Z,18.10
2023-02-14T08:53:53.237Z,18.90
2023-02-14T08:56:22.604Z,17.40
2023-02-14T08:58:52.666Z,18.20
2023-02-14T09:01:19.770Z,16.60
2023-02-14T09:03:46.876Z,17.30
2023-02-14T09:06:17.681Z,18.00
2023-02-14T09:08:46.813Z,18.70
2023-02-14T09:11:22.344Z,18.00
2023-02-14T09:13:50.592Z,17.20
2023-02-14T09:16:19.774Z,17.40
2023-02-14T09:18:47.769Z,18.30
2023-02-14T09:21:18.226Z,19.00
2023-02-14T09:23:45.055Z,16.30
2023-02-14T09:26:13.849Z,17.50
2023-02-14T09:28:41.392Z,18.10
2023-02-14T09:31:15.362Z,15.10
2023-02-14T09:33:43.062Z,17.30
2023-02-14T09:36:12.663Z,16.70
2023-02-14T09:38:39.785Z,13.70
2023-02-14T09:41:09.155Z,14.40
2023-02-14T09:44:06.314Z,14.50
2023-02-14T09:46:41.342Z,13.80
2023-02-14T09:49:17.411Z,12.10
2023-02-14T09:51:48.799Z,14.40
2023-02-14T09:54:22.872Z,12.60
2023-02-14T09:57:11.259Z,13.30
2023-02-14T09:59:46.451Z,13.10
2023-02-14T10:02:22.721Z,13.60
2023-02-14T10:05:18.293Z,12.70
2023-02-14T10:08:12.660Z,13.80
2023-02-14T10:10:39.832Z,13.10
2023-02-14T10:13:11.101Z,13.50
2023-02-14T10:15:43.014Z,12.90
2023-02-14T10:18:16.881Z,13.10
2023-02-14T10:20:53.160Z,13.00
2023-02-14T10:23:46.869Z,11.60
2023-02-14T10:26:22.040Z,13.00
2023-02-14T10:28:50.121Z,13.10
2023-02-14T10:31:32.277Z,11.80
2023-02-14T10:34:17.143Z,12.20
2023-02-14T10:37:02.673Z,12.20
2023-02-14T10:39:55.021Z,12.40
2023-02-14T10:42:48.843Z,11.80
2023-02-14T10:45:26.080Z,11.50
2023-02-14T10:48:16.760Z,13.00
2023-02-14T10:50:52.692Z,13.40
2023-02-14T10:53:31.562Z,11.20
2023-02-14T10:56:04.130Z,11.10
2023-02-14T10:58:33.893Z,11.70
2023-02-14T11:01:03.236Z,13.80
2023-02-14T11:03:30.544Z,11.10
2023-02-14T11:05:57.501Z,11.90
2023-02-14T11:08:36.368Z,11.10
2023-02-14T11:11:27.321Z,11.10
2023-02-14T11:13:54.220Z,13.40
2023-02-14T11:16:39.880Z,10.40
2023-02-14T11:19:18.878Z,11.40
2023-02-14T11:21:47.353Z,12.60
2023-02-14T11:24:38.458Z,9.80
2023-02-14T11:27:10.801Z,10.00
2023-02-14T11:29:52.533Z,9.40
2023-02-14T11:32:34.314Z,9.30
2023-02-14T11:35:24.546Z,9.30
2023-02-14T11:37:53.529Z,9.10
2023-02-14T11:40:37.913Z,10.80
2023-02-14T11:43:14.408Z,11.10
2023-02-14T11:45:43.923Z,10.60
2023-02-14T11:48:37.790Z,9.10
2023-02-14T11:51:11.011Z,9.50
2023-02-14T11:53:43.718Z,9.20
2023-02-14T11:56:10.917Z,9.40
2023-02-14T11:58:41.426Z,8.40
2023-02-14T12:01:14.205Z,10.70
2023-02-14T12:03:47.985Z,8.80
2023-02-14T12:06:27.911Z,9.10
2023-02-14T12:09:22.859Z,7.50
2023-02-14T12:12:15.943Z,8.90
2023-02-14T12:14:42.743Z,8.20
2023-02-14T12:17:29.302Z,6.80
2023-02-14T12:20:08.689Z,6.70
2023-02-14T12:22:45.246Z,7.80
2023-02-14T12:25:40.765Z,6.80
2023-02-14T12:28:16.465Z,7.50
2023-02-14T12:30:43.399Z,7.10
2023-02-14T12:33:18.697Z,7.20
2023-02-14T12:35:52.000Z,6.90
2023-02-14T12:38:21.806Z,6.80
2023-02-14T12:41:09.919Z,5.50
2023-02-14T12:43:55.393Z,7.70
2023-02-14T12:46:40.702Z,6.40
2023-02-14T12:49:29.387Z,6.50
2023-02-14T12:52:06.871Z,6.30
2023-02-14T12:55:02.741Z,6.20
2023-02-14T12:57:31.982Z,7.00
2023-02-14T13:00:14.910Z,6.30
2023-02-14T13:03:16.305Z,6.50
2023-02-14T13:05:46.521Z,6.60
2023-02-14T13:08:32.227Z,6.80
2023-02-14T13:11:17.479Z,6.20
2023-02-14T13:14:13.472Z,6.20
2023-02-14T13:16:57.345Z,5.70
2023-02-14T13:20:02.482Z,6.10
2023-02-14T13:22:30.962Z,7.10
2023-02-14T13:25:01.213Z,5.90
2023-02-14T13:27:32.287Z,5.70
2023-02-14T13:30:06.790Z,5.30
2023-02-14T13:32:40.270Z,5.70
2023-02-14T13:35:08.252Z,5.70
2023-02-14T13:37:36.603Z,5.50
2023-02-14T13:40:16.026Z,6.20
2023-02-14T13:42:48.556Z,5.40
2023-02-14T13:45:30.597Z,5.20
2023-02-14T13:48:29.273Z,5.90
2023-02-14T13:50:57.774Z,5.40
2023-02-14T13:53:43.914Z,5.40
2023-02-14T13:56:15.404Z,9.70
2023-02-14T13:58:59.925Z,5.20
2023-02-14T14:01:37.816Z,5.40
2023-02-14T14:04:31.910Z,6.10
2023-02-14T14:07:04.277Z,5.10
2023-02-14T14:09:43.346Z,4.60
2023-02-14T14:12:30.958Z,5.40
2023-02-14T14:15:06.759Z,5.50
2023-02-14T14:17:38.812Z,5.30
2023-02-14T14:20:29.320Z,6.30
2023-02-14T14:22:58.618Z,5.20
2023-02-14T14:25:38.818Z,5.30
2023-02-14T14:28:18.521Z,5.90
2023-02-14T14:30:45.316Z,5.40
2023-02-14T14:33:24.722Z,6.00
2023-02-14T14:35:57.645Z,5.40
2023-02-14T14:38:26.086Z,5.40
2023-02-14T14:40:54.081Z,6.00
2023-02-14T14:43:34.976Z,6.40
2023-02-14T14:46:03.740Z,5.60
2023-02-14T14:48:39.890Z,7.30
2023-02-14T14:51:09.823Z,5.40
2023-02-14T14:54:08.442Z,5.10
2023-02-14T14:56:38.207Z,5.60
2023-02-14T14:59:26.019Z,5.40
2023-02-14T15:01:54.296Z,5.00
2023-02-14T15:04:32.853Z,5.40
2023-02-14T15:07:33.096Z,5.70
2023-02-14T15:10:00.419Z,5.90
2023-02-14T15:12:45.983Z,5.30
2023-02-14T15:15:16.644Z,6.10
2023-02-14T15:17:45.581Z,5.50
2023-02-14T15:20:23.515Z,5.90
2023-02-14T15:22:52.410Z,5.50
2023-02-14T15:25:33.020Z,6.80
2023-02-14T15:28:00.464Z,8.50
2023-02-14T15:30:34.616Z,7.30
2023-02-14T15:33:07.033Z,7.50
2023-02-14T15:35:36.855Z,7.30
2023-02-14T15:38:06.928Z,6.50
2023-02-14T15:40:35.658Z,7.70
2023-02-14T15:43:17.838Z,5.40
2023-02-14T15:45:47.187Z,6.40
2023-02-14T15:48:29.828Z,5.40
2023-02-14T15:50:59.750Z,4.40
2023-02-14T15:53:39.105Z,5.30
2023-02-14T15:56:11.931Z,5.10
2023-02-14T15:58:40.630Z,4.50
2023-02-14T16:01:08.275Z,6.00
2023-02-14T16:03:39.677Z,5.30
2023-02-14T16:06:06.344Z,4.80
2023-02-14T16:08:38.584Z,5.10
2023-02-14T16:11:28.122Z,7.70
2023-02-14T16:13:54.772Z,6.90
2023-02-14T16:16:21.733Z,6.40
2023-02-14T16:18:54.142Z,6.80
2023-02-14T16:21:32.085Z,12.40
2023-02-14T16:24:08.062Z,7.70
2023-02-14T16:26:38.083Z,7.10
2023-02-14T16:29:21.032Z,8.90
2023-02-14T16:34:47.070Z,9.10
2023-02-14T16:37:25.268Z,8.80
2023-02-14T16:39:54.476Z,8.60
2023-02-14T16:42:21.252Z,10.00
2023-02-14T16:44:47.876Z,10.90
2023-02-14T16:47:16.608Z,10.20
2023-02-14T16:49:43.476Z,10.00
2023-02-14T16:52:19.252Z,13.10
2023-02-14T16:54:46.013Z,12.30
2023-02-14T16:57:29.128Z,12.40
2023-02-14T16:59:56.951Z,12.00
2023-02-14T17:02:26.278Z,12.20
2023-02-14T17:04:53.005Z,13.20
2023-02-14T17:07:19.808Z,13.50
2023-02-14T17:09:52.994Z,13.60
2023-02-14T17:12:25.298Z,14.40
2023-02-14T17:14:57.244Z,15.80
2023-02-14T17:17:25.107Z,14.80
2023-02-14T17:19:52.886Z,15.80
2023-02-14T17:22:20.718Z,17.10
2023-02-14T17:24:47.697Z,19.60
2023-02-14T17:27:14.471Z,18.90
2023-02-14T17:29:41.910Z,22.80
2023-02-14T17:32:12.799Z,18.30
2023-02-14T17:34:40.823Z,21.10
2023-02-14T17:37:08.105Z,18.50
2023-02-14T17:39:35.086Z,17.70
2023-02-14T17:42:02.265Z,19.20
2023-02-14T17:44:32.446Z,20.30
2023-02-14T17:46:59.232Z,18.80
2023-02-14T17:49:26.037Z,20.40
2023-02-14T17:51:53.110Z,20.90
2023-02-14T17:54:20.371Z,24.10
2023-02-14T17:56:47.206Z,21.60
2023-02-14T17:59:14.467Z,21.90
2023-02-14T18:01:42.231Z,25.30
2023-02-14T18:04:09.312Z,25.50
2023-02-14T18:06:37.190Z,25.30
2023-02-14T18:09:06.928Z,26.00
2023-02-14T18:11:33.771Z,26.10
2023-02-14T18:14:01.633Z,28.10
2023-02-14T18:16:28.783Z,29.00
2023-02-14T18:18:55.862Z,27.90
2023-02-14T18:21:24.436Z,28.80
2023-02-14T18:23:51.953Z,35.00
2023-02-14T18:26:19.453Z,36.10
2023-02-14T18:28:46.308Z,38.60
2023-02-14T18:31:16.612Z,42.90
2023-02-14T18:33:43.986Z,43.90
2023-02-14T18:36:13.171Z,55.10
2023-02-14T18:38:41.191Z,93.90
2023-02-14T18:41:10.579Z,46.20
2023-02-14T18:43:37.674Z,62.10
2023-02-14T18:46:06.080Z,43.00
2023-02-14T18:48:33.505Z,51.50
2023-02-14T18:51:10.685Z,54.10
2023-02-14T18:53:38.292Z,72.90
2023-02-14T18:56:09.416Z,84.20
2023-02-14T18:58:36.566Z,93.60
2023-02-14T19:01:17.526Z,81.80
2023-02-14T19:03:45.149Z,62.60
2023-02-14T19:06:12.543Z,57.90
2023-02-14T19:08:40.403Z,66.90
2023-02-14T19:11:15.444Z,56.00
2023-02-14T19:13:50.983Z,59.20
2023-02-14T19:16:33.092Z,42.60
2023-02-14T19:19:02.473Z,44.40
2023-02-14T19:21:33.557Z,46.80
2023-02-14T19:24:01.138Z,69.10
2023-02-14T19:26:34.626Z,51.80
2023-02-14T19:29:03.867Z,50.20
2023-02-14T19:31:30.896Z,56.50
2023-02-14T19:33:57.708Z,55.50
2023-02-14T19:36:24.467Z,53.40
2023-02-14T19:38:53.444Z,50.60
2023-02-14T19:41:19.956Z,59.50
2023-02-14T19:43:47.753Z,54.90
2023-02-14T19:46:16.262Z,48.40
2023-02-14T19:48:44.672Z,59.10
2023-02-14T19:51:29.002Z,44.90
2023-02-14T19:53:56.931Z,64.80
2023-02-14T19:56:29.289Z,54.90
2023-02-14T19:58:56.554Z,42.90
2023-02-14T20:01:24.923Z,56.20
2023-02-14T20:03:53.229Z,44.50
2023-02-14T20:06:24.445Z,35.80
2023-02-14T20:08:52.080Z,34.90
2023-02-14T20:11:46.681Z,31.80
2023-02-14T20:14:14.305Z,31.20
2023-02-14T20:16:41.164Z,32.40
2023-02-14T20:19:16.476Z,31.00
2023-02-14T20:21:45.380Z,32.80
2023-02-14T20:24:15.744Z,32.10
2023-02-14T20:26:42.935Z,29.90
2023-02-14T20:29:10.552Z,39.50
2023-02-14T20:31:42.108Z,37.90
2023-02-14T20:34:09.505Z,33.50
2023-02-14T20:36:36.704Z,46.10
2023-02-14T20:39:05.527Z,43.10
2023-02-14T20:41:34.833Z,43.30
2023-02-14T20:44:11.230Z,34.60
2023-02-14T20:46:38.266Z,27.10
2023-02-14T20:49:05.441Z,27.70
2023-02-14T20:51:32.364Z,31.70
2023-02-14T20:53:59.119Z,33.60
2023-02-14T20:56:26.091Z,36.30
2023-02-14T20:58:53.232Z,31.80
2023-02-14T21:01:22.375Z,30.70
2023-02-14T21:03:51.331Z,34.30
2023-02-14T21:06:20.561Z,28.80
2023-02-14T21:08:47.820Z,31.60
2023-02-14T21:11:17.385Z,30.80
2023-02-14T21:13:44.299Z,32.40
2023-02-14T21:16:16.735Z,33.30
2023-02-14T21:18:49.103Z,30.50
2023-02-14T21:21:20.586Z,33.60
2023-02-14T21:23:51.868Z,33.30
2023-02-14T21:26:19.757Z,34.30
2023-02-14T21:28:46.590Z,33.90
2023-02-14T21:31:15.622Z,35.50
2023-02-14T21:33:42.758Z,32.20
2023-02-14T21:36:11.823Z,33.00
2023-02-14T21:38:39.196Z,32.30
2023-02-14T21:41:14.821Z,32.70
2023-02-14T21:43:43.775Z,32.50
2023-02-14T21:46:12.505Z,36.20
2023-02-14T21:48:58.564Z,33.60
2023-02-14T21:51:27.503Z,33.10
2023-02-14T21:53:55.399Z,34.70
2023-02-14T21:56:23.791Z,32.60
2023-02-14T21:58:52.866Z,34.80
2023-02-14T22:01:22.553Z,34.80
2023-02-14T22:03:50.623Z,34.00
2023-02-14T22:06:18.199Z,34.60
2023-02-14T22:08:44.925Z,32.20
2023-02-14T22:11:15.316Z,27.30
2023-02-14T22:13:42.783Z,29.80
2023-02-14T22:16:14.979Z,30.90
2023-02-14T22:18:42.614Z,30.00
2023-02-14T22:21:12.302Z,30.00
2023-02-14T22:23:39.196Z,28.80
2023-02-14T22:26:27.297Z,27.10
2023-02-14T22:28:59.152Z,28.50
2023-02-14T22:31:27.685Z,34.30
2023-02-14T22:33:54.924Z,38.30
2023-02-14T22:36:22.093Z,31.60
2023-02-14T22:38:48.955Z,26.70
2023-02-14T22:41:19.480Z,26.20
2023-02-14T22:43:46.521Z,23.50
2023-02-14T22:46:21.775Z,22.20
2023-02-14T22:48:50.444Z,22.50
2023-02-14T22:51:28.893Z,20.00
2023-02-14T22:53:57.931Z,21.40
2023-02-14T22:56:30.950Z,24.80
2023-02-14T22:59:00.976Z,32.50
2023-02-14T23:01:28.369Z,26.90
2023-02-14T23:03:59.716Z,26.90
2023-02-14T23:06:29.356Z,23.90
2023-02-14T23:08:57.453Z,28.10
2023-02-14T23:11:27.445Z,29.10
2023-02-14T23:14:14.496Z,24.30
2023-02-14T23:17:00.517Z,27.50
2023-02-14T23:19:48.220Z,28.00
2023-02-14T23:22:23.923Z,25.20
2023-02-14T23:24:52.835Z,26.20
2023-02-14T23:27:22.498Z,25.90
2023-02-14T23:29:49.222Z,28.70
2023-02-14T23:32:16.516Z,29.10
2023-02-14T23:34:45.045Z,29.60
2023-02-14T23:37:13.558Z,31.70
2023-02-14T23:39:40.802Z,31.40
2023-02-14T23:42:10.811Z,33.20
2023-02-14T23:44:37.953Z,30.50
2023-02-14T23:47:06.638Z,28.30
2023-02-14T23:49:35.086Z,28.30
2023-02-14T23:52:02.344Z,28.40
2023-02-14T23:54:29.239Z,33.50
2023-02-14T23:56:57.658Z,30.80
2023-02-14T23:59:25.195Z,29.00
